sensor_id;sensor_type;location;lat;lon;timestamp;P1;durP1;ratioP1;P2;durP2;ratioP2
38312;SDS011;24114;52.260;6.714;2024-03-02T00:01:05;1.60;;;1.17;;
38312;SDS011;24114;52.260;6.714;2024-03-02T00:03:34;2.38;;;1.40;;
38312;SDS011;24114;52.260;6.714;2024-03-02T00:06:02;1.63;;;1.30;;
38312;SDS011;24114;52.260;6.714;2024-03-02T00:08:30;1.50;;;0.95;;
38312;SDS011;24114;52.260;6.714;2024-03-02T00:10:58;2.22;;;1.10;;
38312;SDS011;24114;52.260;6.714;2024-03-02T00:13:26;1.60;;;0.80;;
38312;SDS011;24114;52.260;6.714;2024-03-02T00:15:56;1.47;;;0.93;;
38312;SDS011;24114;52.260;6.714;2024-03-02T00:18:25;1.73;;;1.23;;
38312;SDS011;24114;52.260;6.714;2024-03-02T00:20:53;2.10;;;1.05;;
38312;SDS011;24114;52.260;6.714;2024-03-02T00:23:23;1.65;;;1.00;;
38312;SDS011;24114;52.260;6.714;2024-03-02T00:25:52;2.45;;;0.90;;
38312;SDS011;24114;52.260;6.714;2024-03-02T00:28:22;2.28;;;1.20;;
38312;SDS011;24114;52.260;6.714;2024-03-02T00:30:52;2.05;;;1.00;;
38312;SDS011;24114;52.260;6.714;2024-03-02T00:33:26;1.85;;;1.40;;
38312;SDS011;24114;52.260;6.714;2024-03-02T00:35:55;1.55;;;1.10;;
38312;SDS011;24114;52.260;6.714;2024-03-02T00:38:23;2.95;;;1.15;;
38312;SDS011;24114;52.260;6.714;2024-03-02T00:40:51;2.55;;;1.30;;
38312;SDS011;24114;52.260;6.714;2024-03-02T00:43:34;1.65;;;1.50;;
38312;SDS011;24114;52.260;6.714;2024-03-02T00:46:15;1.83;;;1.10;;
38312;SDS011;24114;52.260;6.714;2024-03-02T00:48:54;2.38;;;1.30;;
38312;SDS011;24114;52.260;6.714;2024-03-02T00:51:23;1.38;;;1.00;;
38312;SDS011;24114;52.260;6.714;2024-03-02T00:53:52;2.05;;;1.38;;
38312;SDS011;24114;52.260;6.714;2024-03-02T00:56:22;1.17;;;1.00;;
38312;SDS011;24114;52.260;6.714;2024-03-02T00:58:50;1.60;;;1.10;;
38312;SDS011;24114;52.260;6.714;2024-03-02T01:01:20;1.35;;;1.10;;
38312;SDS011;24114;52.260;6.714;2024-03-02T01:03:49;1.58;;;1.20;;
38312;SDS011;24114;52.260;6.714;2024-03-02T01:06:17;1.67;;;1.08;;
38312;SDS011;24114;52.260;6.714;2024-03-02T01:08:45;1.70;;;0.85;;
38312;SDS011;24114;52.260;6.714;2024-03-02T01:11:17;2.20;;;1.17;;
38312;SDS011;24114;52.260;6.714;2024-03-02T01:13:45;1.73;;;0.97;;
38312;SDS011;24114;52.260;6.714;2024-03-02T01:16:13;1.17;;;0.90;;
38312;SDS011;24114;52.260;6.714;2024-03-02T01:18:43;1.80;;;1.10;;
38312;SDS011;24114;52.260;6.714;2024-03-02T01:21:11;1.30;;;1.20;;
38312;SDS011;24114;52.260;6.714;2024-03-02T01:23:39;2.42;;;1.38;;
38312;SDS011;24114;52.260;6.714;2024-03-02T01:26:07;1.33;;;0.83;;
38312;SDS011;24114;52.260;6.714;2024-03-02T01:28:35;1.70;;;1.20;;
38312;SDS011;24114;52.260;6.714;2024-03-02T01:31:03;2.30;;;0.90;;
38312;SDS011;24114;52.260;6.714;2024-03-02T01:33:30;1.38;;;0.85;;
38312;SDS011;24114;52.260;6.714;2024-03-02T01:36:00;2.50;;;1.17;;
38312;SDS011;24114;52.260;6.714;2024-03-02T01:38:28;3.30;;;1.33;;
38312;SDS011;24114;52.260;6.714;2024-03-02T01:40:55;2.20;;;0.90;;
38312;SDS011;24114;52.260;6.714;2024-03-02T01:43:24;1.45;;;1.17;;
38312;SDS011;24114;52.260;6.714;2024-03-02T01:45:52;1.80;;;1.10;;
38312;SDS011;24114;52.260;6.714;2024-03-02T01:48:20;1.70;;;1.00;;
38312;SDS011;24114;52.260;6.714;2024-03-02T01:50:48;2.10;;;1.20;;
38312;SDS011;24114;52.260;6.714;2024-03-02T01:53:17;1.43;;;0.77;;
38312;SDS011;24114;52.260;6.714;2024-03-02T01:55:45;2.13;;;1.30;;
38312;SDS011;24114;52.260;6.714;2024-03-02T01:58:13;1.50;;;1.08;;
38312;SDS011;24114;52.260;6.714;2024-03-02T02:00:40;1.83;;;1.15;;
38312;SDS011;24114;52.260;6.714;2024-03-02T02:03:08;1.90;;;1.40;;
38312;SDS011;24114;52.260;6.714;2024-03-02T02:05:36;1.80;;;0.98;;
38312;SDS011;24114;52.260;6.714;2024-03-02T02:08:04;2.00;;;1.00;;
38312;SDS011;24114;52.260;6.714;2024-03-02T02:10:34;1.58;;;1.15;;
38312;SDS011;24114;52.260;6.714;2024-03-02T02:13:02;1.40;;;1.02;;
38312;SDS011;24114;52.260;6.714;2024-03-02T02:15:30;1.95;;;0.90;;
38312;SDS011;24114;52.260;6.714;2024-03-02T02:18:01;1.52;;;0.90;;
38312;SDS011;24114;52.260;6.714;2024-03-02T02:20:30;1.20;;;0.80;;
38312;SDS011;24114;52.260;6.714;2024-03-02T02:22:59;2.42;;;1.13;;
38312;SDS011;24114;52.260;6.714;2024-03-02T02:25:28;1.90;;;0.98;;
38312;SDS011;24114;52.260;6.714;2024-03-02T02:27:56;1.88;;;0.80;;
38312;SDS011;24114;52.260;6.714;2024-03-02T02:30:26;1.50;;;0.90;;
38312;SDS011;24114;52.260;6.714;2024-03-02T02:32:54;2.13;;;1.08;;
38312;SDS011;24114;52.260;6.714;2024-03-02T02:35:22;1.83;;;0.90;;
38312;SDS011;24114;52.260;6.714;2024-03-02T02:37:51;1.65;;;0.88;;
38312;SDS011;24114;52.260;6.714;2024-03-02T02:40:21;2.70;;;1.30;;
38312;SDS011;24114;52.260;6.714;2024-03-02T02:42:49;1.40;;;0.80;;
38312;SDS011;24114;52.260;6.714;2024-03-02T02:45:18;1.60;;;0.73;;
38312;SDS011;24114;52.260;6.714;2024-03-02T02:47:46;1.77;;;0.88;;
38312;SDS011;24114;52.260;6.714;2024-03-02T02:50:14;1.38;;;0.80;;
38312;SDS011;24114;52.260;6.714;2024-03-02T02:52:42;1.42;;;0.80;;
38312;SDS011;24114;52.260;6.714;2024-03-02T02:55:10;1.80;;;0.83;;
38312;SDS011;24114;52.260;6.714;2024-03-02T02:57:40;1.30;;;0.85;;
38312;SDS011;24114;52.260;6.714;2024-03-02T03:00:11;1.75;;;0.98;;
38312;SDS011;24114;52.260;6.714;2024-03-02T03:02:44;2.05;;;0.77;;
38312;SDS011;24114;52.260;6.714;2024-03-02T03:05:14;1.42;;;0.88;;
38312;SDS011;24114;52.260;6.714;2024-03-02T03:07:42;2.35;;;1.00;;
38312;SDS011;24114;52.260;6.714;2024-03-02T03:10:11;1.50;;;1.08;;
38312;SDS011;24114;52.260;6.714;2024-03-02T03:12:42;1.85;;;0.95;;
38312;SDS011;24114;52.260;6.714;2024-03-02T03:15:11;1.33;;;0.90;;
38312;SDS011;24114;52.260;6.714;2024-03-02T03:17:39;1.43;;;1.03;;
38312;SDS011;24114;52.260;6.714;2024-03-02T03:20:08;4.82;;;1.10;;
38312;SDS011;24114;52.260;6.714;2024-03-02T03:22:37;1.52;;;1.00;;
38312;SDS011;24114;52.260;6.714;2024-03-02T03:25:05;1.80;;;0.93;;
38312;SDS011;24114;52.260;6.714;2024-03-02T03:27:35;2.13;;;1.20;;
38312;SDS011;24114;52.260;6.714;2024-03-02T03:30:05;1.98;;;1.27;;
38312;SDS011;24114;52.260;6.714;2024-03-02T03:32:33;2.03;;;1.10;;
38312;SDS011;24114;52.260;6.714;2024-03-02T03:35:01;1.55;;;0.98;;
38312;SDS011;24114;52.260;6.714;2024-03-02T03:37:30;1.70;;;0.80;;
38312;SDS011;24114;52.260;6.714;2024-03-02T03:40:00;1.97;;;1.07;;
38312;SDS011;24114;52.260;6.714;2024-03-02T03:42:29;2.10;;;0.70;;
38312;SDS011;24114;52.260;6.714;2024-03-02T03:44:56;1.58;;;0.80;;
38312;SDS011;24114;52.260;6.714;2024-03-02T03:47:26;1.55;;;0.70;;
38312;SDS011;24114;52.260;6.714;2024-03-02T03:49:54;1.55;;;0.60;;
38312;SDS011;24114;52.260;6.714;2024-03-02T03:52:21;1.60;;;0.65;;
38312;SDS011;24114;52.260;6.714;2024-03-02T03:54:49;1.67;;;0.60;;
38312;SDS011;24114;52.260;6.714;2024-03-02T03:57:17;1.10;;;0.50;;
38312;SDS011;24114;52.260;6.714;2024-03-02T03:59:45;1.73;;;0.50;;
38312;SDS011;24114;52.260;6.714;2024-03-02T04:02:13;2.75;;;0.77;;
38312;SDS011;24114;52.260;6.714;2024-03-02T04:04:42;1.63;;;0.47;;
38312;SDS011;24114;52.260;6.714;2024-03-02T04:07:11;1.65;;;0.50;;
38312;SDS011;24114;52.260;6.714;2024-03-02T04:09:39;1.05;;;0.40;;
38312;SDS011;24114;52.260;6.714;2024-03-02T04:12:07;1.90;;;0.40;;
38312;SDS011;24114;52.260;6.714;2024-03-02T04:14:34;0.90;;;0.32;;
38312;SDS011;24114;52.260;6.714;2024-03-02T04:17:04;1.30;;;0.27;;
38312;SDS011;24114;52.260;6.714;2024-03-02T04:19:32;1.50;;;0.40;;
38312;SDS011;24114;52.260;6.714;2024-03-02T04:22:02;1.15;;;0.10;;
38312;SDS011;24114;52.260;6.714;2024-03-02T04:24:43;1.35;;;0.30;;
38312;SDS011;24114;52.260;6.714;2024-03-02T04:27:11;1.60;;;0.30;;
38312;SDS011;24114;52.260;6.714;2024-03-02T04:29:39;1.52;;;0.30;;
38312;SDS011;24114;52.260;6.714;2024-03-02T04:32:07;1.83;;;0.43;;
38312;SDS011;24114;52.260;6.714;2024-03-02T04:34:35;2.03;;;0.30;;
38312;SDS011;24114;52.260;6.714;2024-03-02T04:37:04;1.10;;;0.30;;
38312;SDS011;24114;52.260;6.714;2024-03-02T04:39:34;1.50;;;0.20;;
38312;SDS011;24114;52.260;6.714;2024-03-02T04:42:02;0.82;;;0.30;;
38312;SDS011;24114;52.260;6.714;2024-03-02T04:44:30;1.10;;;0.30;;
38312;SDS011;24114;52.260;6.714;2024-03-02T04:46:58;1.13;;;0.20;;
38312;SDS011;24114;52.260;6.714;2024-03-02T04:49:26;1.57;;;0.20;;
38312;SDS011;24114;52.260;6.714;2024-03-02T04:51:54;2.10;;;0.20;;
38312;SDS011;24114;52.260;6.714;2024-03-02T04:54:23;0.70;;;0.17;;
38312;SDS011;24114;52.260;6.714;2024-03-02T04:56:51;0.93;;;0.13;;
38312;SDS011;24114;52.260;6.714;2024-03-02T04:59:18;1.02;;;0.10;;
38312;SDS011;24114;52.260;6.714;2024-03-02T05:01:46;1.00;;;0.10;;
38312;SDS011;24114;52.260;6.714;2024-03-02T05:04:14;0.73;;;0.10;;
38312;SDS011;24114;52.260;6.714;2024-03-02T05:06:42;0.88;;;0.17;;
38312;SDS011;24114;52.260;6.714;2024-03-02T05:09:10;0.82;;;0.10;;
38312;SDS011;24114;52.260;6.714;2024-03-02T05:11:39;0.70;;;0.15;;
38312;SDS011;24114;52.260;6.714;2024-03-02T05:14:29;0.73;;;0.20;;
38312;SDS011;24114;52.260;6.714;2024-03-02T05:16:56;1.60;;;0.30;;
38312;SDS011;24114;52.260;6.714;2024-03-02T05:19:24;1.50;;;0.10;;
38312;SDS011;24114;52.260;6.714;2024-03-02T05:21:52;0.50;;;0.10;;
38312;SDS011;24114;52.260;6.714;2024-03-02T05:24:20;0.65;;;0.10;;
38312;SDS011;24114;52.260;6.714;2024-03-02T05:26:49;0.57;;;0.20;;
38312;SDS011;24114;52.260;6.714;2024-03-02T05:29:17;1.03;;;0.20;;
38312;SDS011;24114;52.260;6.714;2024-03-02T05:31:45;1.52;;;0.10;;
38312;SDS011;24114;52.260;6.714;2024-03-02T05:34:12;0.98;;;0.38;;
38312;SDS011;24114;52.260;6.714;2024-03-02T05:36:40;0.80;;;0.10;;
38312;SDS011;24114;52.260;6.714;2024-03-02T05:39:08;1.15;;;0.10;;
38312;SDS011;24114;52.260;6.714;2024-03-02T05:41:36;0.80;;;0.10;;
38312;SDS011;24114;52.260;6.714;2024-03-02T05:44:06;0.90;;;0.13;;
38312;SDS011;24114;52.260;6.714;2024-03-02T05:46:34;1.27;;;0.20;;
38312;SDS011;24114;52.260;6.714;2024-03-02T05:49:05;0.80;;;0.20;;
38312;SDS011;24114;52.260;6.714;2024-03-02T05:51:34;0.70;;;0.20;;
38312;SDS011;24114;52.260;6.714;2024-03-02T05:54:02;0.75;;;0.10;;
38312;SDS011;24114;52.260;6.714;2024-03-02T05:56:30;0.68;;;0.10;;
38312;SDS011;24114;52.260;6.714;2024-03-02T05:58:58;1.27;;;0.10;;
38312;SDS011;24114;52.260;6.714;2024-03-02T06:01:40;0.80;;;0.10;;
38312;SDS011;24114;52.260;6.714;2024-03-02T06:04:08;1.30;;;0.17;;
38312;SDS011;24114;52.260;6.714;2024-03-02T06:06:36;0.85;;;0.20;;
38312;SDS011;24114;52.260;6.714;2024-03-02T06:09:05;0.95;;;0.30;;
38312;SDS011;24114;52.260;6.714;2024-03-02T06:11:34;1.00;;;0.10;;
38312;SDS011;24114;52.260;6.714;2024-03-02T06:14:02;0.73;;;0.20;;
38312;SDS011;24114;52.260;6.714;2024-03-02T06:16:30;0.82;;;0.10;;
38312;SDS011;24114;52.260;6.714;2024-03-02T06:19:00;1.25;;;0.30;;
38312;SDS011;24114;52.260;6.714;2024-03-02T06:21:28;1.10;;;0.17;;
38312;SDS011;24114;52.260;6.714;2024-03-02T06:23:56;0.40;;;0.10;;
38312;SDS011;24114;52.260;6.714;2024-03-02T06:26:24;0.45;;;0.10;;
38312;SDS011;24114;52.260;6.714;2024-03-02T06:28:52;0.75;;;0.10;;
38312;SDS011;24114;52.260;6.714;2024-03-02T06:31:20;1.03;;;0.10;;
38312;SDS011;24114;52.260;6.714;2024-03-02T06:33:47;0.65;;;0.20;;
38312;SDS011;24114;52.260;6.714;2024-03-02T06:36:17;1.00;;;0.10;;
38312;SDS011;24114;52.260;6.714;2024-03-02T06:38:44;1.25;;;0.30;;
38312;SDS011;24114;52.260;6.714;2024-03-02T06:41:12;1.40;;;0.30;;
38312;SDS011;24114;52.260;6.714;2024-03-02T06:43:40;0.60;;;0.20;;
38312;SDS011;24114;52.260;6.714;2024-03-02T06:46:08;1.02;;;0.20;;
38312;SDS011;24114;52.260;6.714;2024-03-02T06:48:36;0.70;;;0.10;;
38312;SDS011;24114;52.260;6.714;2024-03-02T06:51:04;1.10;;;0.30;;
38312;SDS011;24114;52.260;6.714;2024-03-02T06:53:33;1.23;;;0.25;;
38312;SDS011;24114;52.260;6.714;2024-03-02T06:56:01;1.13;;;0.20;;
38312;SDS011;24114;52.260;6.714;2024-03-02T06:58:28;1.10;;;0.10;;
38312;SDS011;24114;52.260;6.714;2024-03-02T07:00:56;0.50;;;0.15;;
38312;SDS011;24114;52.260;6.714;2024-03-02T07:03:24;0.90;;;0.10;;
38312;SDS011;24114;52.260;6.714;2024-03-02T07:05:52;0.97;;;0.10;;
38312;SDS011;24114;52.260;6.714;2024-03-02T07:08:20;2.75;;;0.30;;
38312;SDS011;24114;52.260;6.714;2024-03-02T07:10:49;1.52;;;0.10;;
38312;SDS011;24114;52.260;6.714;2024-03-02T07:13:16;0.90;;;0.20;;
38312;SDS011;24114;52.260;6.714;2024-03-02T07:15:44;1.20;;;0.30;;
38312;SDS011;24114;52.260;6.714;2024-03-02T07:18:32;1.50;;;0.20;;
38312;SDS011;24114;52.260;6.714;2024-03-02T07:21:01;1.63;;;0.25;;
38312;SDS011;24114;52.260;6.714;2024-03-02T07:23:29;1.10;;;0.20;;
38312;SDS011;24114;52.260;6.714;2024-03-02T07:25:59;0.60;;;0.20;;
38312;SDS011;24114;52.260;6.714;2024-03-02T07:28:30;0.68;;;0.10;;
38312;SDS011;24114;52.260;6.714;2024-03-02T07:30:58;1.20;;;0.30;;
38312;SDS011;24114;52.260;6.714;2024-03-02T07:33:27;1.02;;;0.40;;
38312;SDS011;24114;52.260;6.714;2024-03-02T07:35:55;3.50;;;2.20;;
38312;SDS011;24114;52.260;6.714;2024-03-02T07:38:23;6.80;;;4.00;;
38312;SDS011;24114;52.260;6.714;2024-03-02T07:40:50;4.60;;;2.47;;
38312;SDS011;24114;52.260;6.714;2024-03-02T07:43:20;2.35;;;1.38;;
38312;SDS011;24114;52.260;6.714;2024-03-02T07:45:48;1.10;;;0.43;;
38312;SDS011;24114;52.260;6.714;2024-03-02T07:48:16;3.28;;;0.68;;
38312;SDS011;24114;52.260;6.714;2024-03-02T07:50:44;1.15;;;0.40;;
38312;SDS011;24114;52.260;6.714;2024-03-02T07:53:12;0.93;;;0.20;;
38312;SDS011;24114;52.260;6.714;2024-03-02T07:55:40;1.30;;;0.38;;
38312;SDS011;24114;52.260;6.714;2024-03-02T07:58:08;1.05;;;0.25;;
38312;SDS011;24114;52.260;6.714;2024-03-02T08:00:39;1.63;;;0.30;;
38312;SDS011;24114;52.260;6.714;2024-03-02T08:03:07;1.48;;;0.50;;
38312;SDS011;24114;52.260;6.714;2024-03-02T08:05:37;1.42;;;0.35;;
38312;SDS011;24114;52.260;6.714;2024-03-02T08:08:06;2.03;;;0.50;;
38312;SDS011;24114;52.260;6.714;2024-03-02T08:10:34;1.70;;;0.40;;
38312;SDS011;24114;52.260;6.714;2024-03-02T08:13:02;1.27;;;0.57;;
38312;SDS011;24114;52.260;6.714;2024-03-02T08:15:30;1.23;;;0.60;;
38312;SDS011;24114;52.260;6.714;2024-03-02T08:18:00;2.47;;;0.65;;
38312;SDS011;24114;52.260;6.714;2024-03-02T08:20:28;1.00;;;0.50;;
38312;SDS011;24114;52.260;6.714;2024-03-02T08:22:58;1.70;;;0.60;;
38312;SDS011;24114;52.260;6.714;2024-03-02T08:25:25;2.65;;;0.95;;
38312;SDS011;24114;52.260;6.714;2024-03-02T08:27:53;1.52;;;0.90;;
38312;SDS011;24114;52.260;6.714;2024-03-02T08:30:21;2.17;;;0.95;;
38312;SDS011;24114;52.260;6.714;2024-03-02T08:32:49;1.40;;;0.70;;
38312;SDS011;24114;52.260;6.714;2024-03-02T08:35:18;1.60;;;0.82;;
38312;SDS011;24114;52.260;6.714;2024-03-02T08:37:48;1.70;;;1.20;;
38312;SDS011;24114;52.260;6.714;2024-03-02T08:40:16;1.83;;;0.93;;
38312;SDS011;24114;52.260;6.714;2024-03-02T08:42:44;2.63;;;1.13;;
38312;SDS011;24114;52.260;6.714;2024-03-02T08:45:13;2.33;;;1.40;;
38312;SDS011;24114;52.260;6.714;2024-03-02T08:47:41;2.20;;;1.10;;
38312;SDS011;24114;52.260;6.714;2024-03-02T08:50:08;2.27;;;1.20;;
38312;SDS011;24114;52.260;6.714;2024-03-02T08:52:38;3.75;;;1.42;;
38312;SDS011;24114;52.260;6.714;2024-03-02T08:55:06;2.13;;;0.90;;
38312;SDS011;24114;52.260;6.714;2024-03-02T08:57:34;2.17;;;0.95;;
38312;SDS011;24114;52.260;6.714;2024-03-02T09:00:02;1.73;;;0.55;;
38312;SDS011;24114;52.260;6.714;2024-03-02T09:02:31;1.27;;;0.45;;
38312;SDS011;24114;52.260;6.714;2024-03-02T09:04:59;1.30;;;0.70;;
38312;SDS011;24114;52.260;6.714;2024-03-02T09:07:27;2.28;;;0.73;;
38312;SDS011;24114;52.260;6.714;2024-03-02T09:09:59;1.75;;;0.55;;
38312;SDS011;24114;52.260;6.714;2024-03-02T09:12:27;1.55;;;0.50;;
38312;SDS011;24114;52.260;6.714;2024-03-02T09:14:54;1.85;;;0.55;;
38312;SDS011;24114;52.260;6.714;2024-03-02T09:17:22;1.40;;;0.40;;
38312;SDS011;24114;52.260;6.714;2024-03-02T09:19:50;2.00;;;0.40;;
38312;SDS011;24114;52.260;6.714;2024-03-02T09:22:19;1.35;;;0.40;;
38312;SDS011;24114;52.260;6.714;2024-03-02T09:24:47;2.47;;;1.00;;
38312;SDS011;24114;52.260;6.714;2024-03-02T09:27:16;1.45;;;0.50;;
38312;SDS011;24114;52.260;6.714;2024-03-02T09:29:44;1.90;;;0.80;;
38312;SDS011;24114;52.260;6.714;2024-03-02T09:32:12;1.85;;;0.47;;
38312;SDS011;24114;52.260;6.714;2024-03-02T09:34:40;1.48;;;0.40;;
38312;SDS011;24114;52.260;6.714;2024-03-02T09:37:09;1.77;;;0.50;;
38312;SDS011;24114;52.260;6.714;2024-03-02T09:39:37;2.13;;;0.90;;
38312;SDS011;24114;52.260;6.714;2024-03-02T09:42:05;2.25;;;0.63;;
38312;SDS011;24114;52.260;6.714;2024-03-02T09:44:34;1.55;;;0.90;;
38312;SDS011;24114;52.260;6.714;2024-03-02T09:47:02;2.13;;;1.30;;
38312;SDS011;24114;52.260;6.714;2024-03-02T09:49:30;2.50;;;1.40;;
38312;SDS011;24114;52.260;6.714;2024-03-02T09:51:58;3.10;;;0.80;;
38312;SDS011;24114;52.260;6.714;2024-03-02T09:54:26;1.67;;;0.80;;
38312;SDS011;24114;52.260;6.714;2024-03-02T09:56:55;1.73;;;0.93;;
38312;SDS011;24114;52.260;6.714;2024-03-02T09:59:22;2.37;;;1.30;;
38312;SDS011;24114;52.260;6.714;2024-03-02T10:01:58;2.13;;;1.15;;
38312;SDS011;24114;52.260;6.714;2024-03-02T10:04:27;1.45;;;1.08;;
38312;SDS011;24114;52.260;6.714;2024-03-02T10:09:47;1.50;;;0.80;;
38312;SDS011;24114;52.260;6.714;2024-03-02T10:12:16;1.48;;;0.57;;
38312;SDS011;24114;52.260;6.714;2024-03-02T10:14:45;2.37;;;0.70;;
38312;SDS011;24114;52.260;6.714;2024-03-02T10:17:17;1.10;;;0.40;;
38312;SDS011;24114;52.260;6.714;2024-03-02T10:19:45;1.52;;;0.32;;
38312;SDS011;24114;52.260;6.714;2024-03-02T10:22:13;1.85;;;0.30;;
38312;SDS011;24114;52.260;6.714;2024-03-02T10:24:42;1.50;;;0.40;;
38312;SDS011;24114;52.260;6.714;2024-03-02T10:27:14;1.10;;;0.30;;
38312;SDS011;24114;52.260;6.714;2024-03-02T10:29:45;1.50;;;0.20;;
38312;SDS011;24114;52.260;6.714;2024-03-02T10:32:13;1.58;;;0.25;;
38312;SDS011;24114;52.260;6.714;2024-03-02T10:34:44;1.25;;;0.20;;
38312;SDS011;24114;52.260;6.714;2024-03-02T10:37:13;1.75;;;0.10;;
38312;SDS011;24114;52.260;6.714;2024-03-02T10:39:43;1.92;;;0.28;;
38312;SDS011;24114;52.260;6.714;2024-03-02T10:42:14;1.40;;;0.20;;
38312;SDS011;24114;52.260;6.714;2024-03-02T10:44:42;1.35;;;0.15;;
38312;SDS011;24114;52.260;6.714;2024-03-02T10:47:10;1.95;;;0.40;;
38312;SDS011;24114;52.260;6.714;2024-03-02T10:49:39;1.25;;;0.20;;
38312;SDS011;24114;52.260;6.714;2024-03-02T10:52:10;1.15;;;0.20;;
38312;SDS011;24114;52.260;6.714;2024-03-02T10:54:38;1.30;;;0.33;;
38312;SDS011;24114;52.260;6.714;2024-03-02T10:57:07;1.65;;;0.55;;
38312;SDS011;24114;52.260;6.714;2024-03-02T10:59:36;1.95;;;0.88;;
38312;SDS011;24114;52.260;6.714;2024-03-02T11:02:06;2.50;;;1.48;;
38312;SDS011;24114;52.260;6.714;2024-03-02T11:04:34;3.10;;;1.50;;
38312;SDS011;24114;52.260;6.714;2024-03-02T11:07:04;1.95;;;1.00;;
38312;SDS011;24114;52.260;6.714;2024-03-02T11:09:35;2.33;;;1.20;;
38312;SDS011;24114;52.260;6.714;2024-03-02T11:12:12;3.22;;;1.80;;
38312;SDS011;24114;52.260;6.714;2024-03-02T11:14:41;2.15;;;1.10;;
38312;SDS011;24114;52.260;6.714;2024-03-02T11:17:10;1.97;;;0.90;;
38312;SDS011;24114;52.260;6.714;2024-03-02T11:19:39;1.58;;;0.70;;
38312;SDS011;24114;52.260;6.714;2024-03-02T11:22:07;1.80;;;0.70;;
38312;SDS011;24114;52.260;6.714;2024-03-02T11:24:37;2.22;;;0.55;;
38312;SDS011;24114;52.260;6.714;2024-03-02T11:27:05;1.33;;;0.57;;
38312;SDS011;24114;52.260;6.714;2024-03-02T11:29:43;1.45;;;0.60;;
38312;SDS011;24114;52.260;6.714;2024-03-02T11:32:16;1.33;;;0.43;;
38312;SDS011;24114;52.260;6.714;2024-03-02T11:34:45;1.50;;;0.60;;
38312;SDS011;24114;52.260;6.714;2024-03-02T11:37:14;1.63;;;0.40;;
38312;SDS011;24114;52.260;6.714;2024-03-02T11:39:44;1.13;;;0.30;;
38312;SDS011;24114;52.260;6.714;2024-03-02T11:44:12;1.40;;;0.30;;
38312;SDS011;24114;52.260;6.714;2024-03-02T11:46:40;1.42;;;0.40;;
38312;SDS011;24114;52.260;6.714;2024-03-02T11:49:08;1.23;;;0.55;;
38312;SDS011;24114;52.260;6.714;2024-03-02T11:51:36;1.30;;;0.45;;
38312;SDS011;24114;52.260;6.714;2024-03-02T11:54:06;1.65;;;0.45;;
38312;SDS011;24114;52.260;6.714;2024-03-02T11:56:36;2.20;;;0.47;;
38312;SDS011;24114;52.260;6.714;2024-03-02T11:59:03;1.65;;;0.70;;
38312;SDS011;24114;52.260;6.714;2024-03-02T12:01:35;1.48;;;0.50;;
38312;SDS011;24114;52.260;6.714;2024-03-02T12:04:04;1.35;;;0.70;;
38312;SDS011;24114;52.260;6.714;2024-03-02T12:06:32;1.30;;;0.43;;
38312;SDS011;24114;52.260;6.714;2024-03-02T12:09:00;2.37;;;0.87;;
38312;SDS011;24114;52.260;6.714;2024-03-02T12:11:28;2.30;;;1.37;;
38312;SDS011;24114;52.260;6.714;2024-03-02T12:13:56;2.25;;;1.23;;
38312;SDS011;24114;52.260;6.714;2024-03-02T12:16:25;1.50;;;1.35;;
38312;SDS011;24114;52.260;6.714;2024-03-02T12:18:55;1.83;;;1.27;;
38312;SDS011;24114;52.260;6.714;2024-03-02T12:21:23;2.20;;;1.20;;
38312;SDS011;24114;52.260;6.714;2024-03-02T12:23:51;1.98;;;1.35;;
38312;SDS011;24114;52.260;6.714;2024-03-02T12:26:19;1.52;;;1.10;;
38312;SDS011;24114;52.260;6.714;2024-03-02T12:28:47;2.28;;;1.10;;
38312;SDS011;24114;52.260;6.714;2024-03-02T12:31:15;1.70;;;1.20;;
38312;SDS011;24114;52.260;6.714;2024-03-02T12:33:43;1.63;;;1.20;;
38312;SDS011;24114;52.260;6.714;2024-03-02T12:38:37;1.70;;;1.27;;
38312;SDS011;24114;52.260;6.714;2024-03-02T12:43:13;3.00;;;1.73;;
38312;SDS011;24114;52.260;6.714;2024-03-02T12:45:41;1.80;;;0.70;;
38312;SDS011;24114;52.260;6.714;2024-03-02T12:48:08;1.52;;;0.70;;
38312;SDS011;24114;52.260;6.714;2024-03-02T12:50:36;2.03;;;0.80;;
38312;SDS011;24114;52.260;6.714;2024-03-02T12:53:04;1.20;;;0.70;;
38312;SDS011;24114;52.260;6.714;2024-03-02T12:57:29;8.47;;;4.10;;
38312;SDS011;24114;52.260;6.714;2024-03-02T12:59:58;16.33;;;7.50;;
38312;SDS011;24114;52.260;6.714;2024-03-02T13:02:30;6.28;;;3.63;;
38312;SDS011;24114;52.260;6.714;2024-03-02T13:04:58;7.07;;;4.65;;
38312;SDS011;24114;52.260;6.714;2024-03-02T13:07:26;4.97;;;3.80;;
38312;SDS011;24114;52.260;6.714;2024-03-02T13:09:54;1.70;;;1.00;;
38312;SDS011;24114;52.260;6.714;2024-03-02T13:12:23;1.35;;;0.80;;
38312;SDS011;24114;52.260;6.714;2024-03-02T13:14:53;2.30;;;1.42;;
38312;SDS011;24114;52.260;6.714;2024-03-02T14:15:03;1.00;;;0.30;;
38312;SDS011;24114;52.260;6.714;2024-03-02T14:17:32;3.28;;;0.60;;
38312;SDS011;24114;52.260;6.714;2024-03-02T14:20:00;2.00;;;0.52;;
38312;SDS011;24114;52.260;6.714;2024-03-02T14:23:34;5.05;;;0.60;;
38312;SDS011;24114;52.260;6.714;2024-03-02T14:26:02;2.00;;;0.60;;
38312;SDS011;24114;52.260;6.714;2024-03-02T14:28:30;2.35;;;0.80;;
38312;SDS011;24114;52.260;6.714;2024-03-02T14:31:15;3.92;;;0.90;;
38312;SDS011;24114;52.260;6.714;2024-03-02T14:33:44;2.80;;;1.92;;
38312;SDS011;24114;52.260;6.714;2024-03-02T14:36:12;3.13;;;2.40;;
38312;SDS011;24114;52.260;6.714;2024-03-02T14:38:41;1.35;;;0.80;;
38312;SDS011;24114;52.260;6.714;2024-03-02T14:41:09;1.30;;;0.45;;
38312;SDS011;24114;52.260;6.714;2024-03-02T14:43:37;2.58;;;1.88;;
38312;SDS011;24114;52.260;6.714;2024-03-02T14:46:05;1.88;;;1.00;;
38312;SDS011;24114;52.260;6.714;2024-03-02T14:48:34;2.28;;;0.98;;
38312;SDS011;24114;52.260;6.714;2024-03-02T14:51:02;1.25;;;0.75;;
38312;SDS011;24114;52.260;6.714;2024-03-02T14:53:30;1.58;;;0.40;;
38312;SDS011;24114;52.260;6.714;2024-03-02T14:56:00;1.70;;;0.30;;
38312;SDS011;24114;52.260;6.714;2024-03-02T14:58:27;1.67;;;0.30;;
38312;SDS011;24114;52.260;6.714;2024-03-02T15:00:55;1.35;;;0.30;;
38312;SDS011;24114;52.260;6.714;2024-03-02T15:03:23;1.58;;;0.30;;
38312;SDS011;24114;52.260;6.714;2024-03-02T15:05:51;1.52;;;0.20;;
38312;SDS011;24114;52.260;6.714;2024-03-02T15:08:20;2.22;;;0.30;;
38312;SDS011;24114;52.260;6.714;2024-03-02T15:10:47;1.50;;;0.22;;
38312;SDS011;24114;52.260;6.714;2024-03-02T15:13:17;1.10;;;0.28;;
38312;SDS011;24114;52.260;6.714;2024-03-02T15:15:44;1.75;;;0.17;;
38312;SDS011;24114;52.260;6.714;2024-03-02T15:18:12;1.42;;;0.10;;
38312;SDS011;24114;52.260;6.714;2024-03-02T15:33:03;7.23;;;5.77;;
38312;SDS011;24114;52.260;6.714;2024-03-02T15:35:31;6.28;;;4.40;;
38312;SDS011;24114;52.260;6.714;2024-03-02T15:37:59;4.45;;;3.72;;
38312;SDS011;24114;52.260;6.714;2024-03-02T15:40:27;0.80;;;0.20;;
38312;SDS011;24114;52.260;6.714;2024-03-02T15:42:54;1.23;;;0.43;;
38312;SDS011;24114;52.260;6.714;2024-03-02T15:45:22;1.85;;;0.47;;
38312;SDS011;24114;52.260;6.714;2024-03-02T15:47:51;0.93;;;0.32;;
38312;SDS011;24114;52.260;6.714;2024-03-02T15:50:20;1.00;;;0.30;;
38312;SDS011;24114;52.260;6.714;2024-03-02T15:52:48;2.00;;;0.30;;
38312;SDS011;24114;52.260;6.714;2024-03-02T15:55:15;1.30;;;0.40;;
38312;SDS011;24114;52.260;6.714;2024-03-02T15:57:43;2.22;;;1.50;;
38312;SDS011;24114;52.260;6.714;2024-03-02T16:00:12;1.45;;;0.52;;
38312;SDS011;24114;52.260;6.714;2024-03-02T16:02:40;1.10;;;0.40;;
38312;SDS011;24114;52.260;6.714;2024-03-02T16:05:08;2.17;;;1.08;;
38312;SDS011;24114;52.260;6.714;2024-03-02T16:07:37;2.17;;;1.30;;
38312;SDS011;24114;52.260;6.714;2024-03-02T16:10:05;1.73;;;1.38;;
38312;SDS011;24114;52.260;6.714;2024-03-02T16:12:34;4.45;;;3.70;;
38312;SDS011;24114;52.260;6.714;2024-03-02T16:15:02;3.50;;;1.95;;
38312;SDS011;24114;52.260;6.714;2024-03-02T16:17:30;2.60;;;1.60;;
38312;SDS011;24114;52.260;6.714;2024-03-02T16:19:58;1.70;;;1.08;;